createdAt,value
2022-11-19T00:02:13.502Z,3.80
2022-11-19T00:05:02.992Z,3.76
2022-11-19T00:07:50.676Z,3.76
2022-11-19T00:10:39.533Z,3.63
2022-11-19T00:13:26.137Z,3.66
2022-11-19T00:16:15.632Z,3.70
2022-11-19T00:19:03.617Z,3.68
2022-11-19T00:21:52.823Z,3.65
2022-11-19T00:24:40.569Z,3.59
2022-11-19T00:27:28.139Z,3.59
2022-11-19T00:30:40.903Z,3.57
2022-11-19T00:33:24.582Z,3.58
2022-11-19T00:36:15.357Z,3.48
2022-11-19T00:39:04.940Z,3.48
2022-11-19T00:41:53.084Z,3.48
2022-11-19T00:44:41.178Z,3.44
2022-11-19T00:47:29.215Z,3.43
2022-11-19T00:50:17.280Z,3.40
2022-11-19T00:53:05.339Z,3.39
2022-11-19T00:55:54.542Z,3.34
2022-11-19T00:58:42.815Z,3.31
2022-11-19T01:01:30.713Z,3.28
2022-11-19T01:04:18.759Z,3.28
2022-11-19T01:07:06.778Z,3.25
2022-11-19T01:09:54.724Z,3.23
2022-11-19T01:12:58.231Z,3.21
2022-11-19T01:16:15.446Z,3.23
2022-11-19T01:19:07.516Z,3.22
2022-11-19T01:22:21.928Z,3.17
2022-11-19T01:25:11.334Z,3.12
2022-11-19T01:28:01.553Z,3.06
2022-11-19T01:30:49.567Z,3.01
2022-11-19T01:33:37.888Z,2.98
2022-11-19T01:36:26.949Z,2.96
2022-11-19T01:39:15.152Z,2.92
2022-11-19T01:42:08.603Z,2.88
2022-11-19T01:45:06.144Z,2.86
2022-11-19T01:47:57.168Z,2.83
2022-11-19T01:50:49.910Z,2.79
2022-11-19T01:53:38.286Z,2.77
2022-11-19T01:56:27.671Z,2.72
2022-11-19T01:59:18.337Z,2.70
2022-11-19T02:02:09.026Z,2.64
2022-11-19T02:04:58.941Z,2.67
2022-11-19T02:07:54.515Z,2.64
2022-11-19T02:10:52.309Z,2.62
2022-11-19T02:13:44.837Z,2.54
2022-11-19T02:16:44.438Z,2.51
2022-11-19T02:20:03.654Z,2.52
2022-11-19T02:23:24.080Z,2.52
2022-11-19T02:26:56.923Z,2.52
2022-11-19T02:30:07.361Z,2.52
2022-11-19T02:33:07.063Z,2.48
2022-11-19T02:36:01.191Z,2.46
2022-11-19T02:38:54.466Z,2.43
2022-11-19T02:41:52.385Z,2.40
2022-11-19T02:45:02.448Z,2.35
2022-11-19T02:47:55.028Z,2.37
2022-11-19T02:50:47.063Z,2.36
2022-11-19T02:53:35.097Z,2.34
2022-11-19T02:56:48.551Z,2.33
2022-11-19T02:59:58.491Z,2.34
2022-11-19T03:03:10.537Z,2.31
2022-11-19T03:06:03.616Z,2.25
2022-11-19T03:08:51.920Z,2.26
2022-11-19T03:11:40.240Z,2.27
2022-11-19T03:14:49.905Z,2.28
2022-11-19T03:17:52.553Z,2.28
2022-11-19T03:20:49.570Z,2.27
2022-11-19T03:23:44.002Z,2.23
2022-11-19T03:26:36.891Z,2.20
2022-11-19T03:29:27.543Z,2.20
2022-11-19T03:32:20.795Z,2.17
2022-11-19T03:35:14.626Z,2.16
2022-11-19T03:38:08.519Z,2.17
2022-11-19T03:40:57.014Z,2.20
2022-11-19T03:43:49.358Z,2.21
2022-11-19T03:46:40.275Z,2.19
2022-11-19T03:49:33.018Z,2.16
2022-11-19T03:52:22.864Z,2.11
2022-11-19T03:55:12.836Z,2.13
2022-11-19T03:58:04.858Z,2.14
2022-11-19T04:00:52.553Z,2.12
2022-11-19T04:03:40.743Z,2.06
2022-11-19T04:06:28.575Z,2.05
2022-11-19T04:09:17.384Z,1.99
2022-11-19T04:12:08.820Z,2.00
2022-11-19T04:14:57.192Z,2.01
2022-11-19T04:17:44.963Z,2.03
2022-11-19T04:20:33.207Z,2.01
2022-11-19T04:23:21.261Z,2.02
2022-11-19T04:26:09.370Z,2.01
2022-11-19T04:28:58.553Z,2.01
2022-11-19T04:31:46.388Z,2.02
2022-11-19T04:34:34.014Z,2.03
2022-11-19T04:37:22.392Z,2.02
2022-11-19T04:40:11.536Z,1.99
2022-11-19T04:42:59.563Z,2.00
2022-11-19T04:45:48.734Z,1.99
2022-11-19T04:48:36.660Z,1.96
2022-11-19T04:51:24.900Z,1.97
2022-11-19T04:54:13.162Z,1.96
2022-11-19T04:57:00.805Z,1.96
2022-11-19T04:59:48.747Z,1.96
2022-11-19T05:02:38.232Z,1.96
2022-11-19T05:05:26.197Z,1.96
2022-11-19T05:08:14.166Z,1.94
2022-11-19T05:11:02.012Z,1.95
2022-11-19T05:13:50.049Z,1.92
2022-11-19T05:16:37.969Z,1.91
2022-11-19T05:19:27.175Z,1.92
2022-11-19T05:22:15.126Z,1.93
2022-11-19T05:25:03.322Z,1.92
2022-11-19T05:27:51.765Z,1.91
2022-11-19T05:30:39.824Z,1.90
2022-11-19T05:33:32.745Z,1.89
2022-11-19T05:36:23.358Z,1.88
2022-11-19T05:39:11.608Z,1.89
2022-11-19T05:41:59.680Z,1.90
2022-11-19T05:44:47.810Z,1.90
2022-11-19T05:47:36.365Z,1.87
2022-11-19T05:50:24.010Z,1.68
2022-11-19T05:53:13.423Z,1.65
2022-11-19T05:56:01.175Z,1.54
2022-11-19T05:58:49.320Z,1.59
2022-11-19T06:01:37.564Z,1.72
2022-11-19T06:04:25.840Z,1.77
2022-11-19T06:07:13.688Z,1.78
2022-11-19T06:10:03.263Z,1.80
2022-11-19T06:12:51.153Z,1.74
2022-11-19T06:15:39.308Z,1.76
2022-11-19T06:18:27.362Z,1.77
2022-11-19T06:21:16.129Z,1.82
2022-11-19T06:24:04.639Z,1.81
2022-11-19T06:26:56.214Z,1.77
2022-11-19T06:29:44.150Z,1.70
2022-11-19T06:32:32.654Z,1.76
2022-11-19T06:35:20.443Z,1.80
2022-11-19T06:38:08.558Z,1.83
2022-11-19T06:40:56.377Z,1.87
2022-11-19T06:43:46.091Z,1.87
2022-11-19T06:46:34.080Z,1.90
2022-11-19T06:49:22.460Z,1.92
2022-11-19T06:52:10.874Z,1.91
2022-11-19T06:54:58.847Z,1.92
2022-11-19T06:57:47.012Z,1.92
2022-11-19T07:00:37.363Z,1.93
2022-11-19T07:03:26.495Z,1.93
2022-11-19T07:06:14.558Z,1.91
2022-11-19T07:09:03.186Z,1.89
2022-11-19T07:11:53.101Z,1.91
2022-11-19T07:14:41.236Z,1.88
2022-11-19T07:17:30.772Z,1.92
2022-11-19T07:20:19.449Z,1.96
2022-11-19T07:23:11.543Z,1.98
2022-11-19T07:26:04.321Z,1.98
2022-11-19T07:28:52.277Z,2.01
2022-11-19T07:31:43.501Z,1.99
2022-11-19T07:34:35.982Z,1.99
2022-11-19T07:37:24.145Z,1.84
2022-11-19T07:40:15.048Z,1.82
2022-11-19T07:43:02.321Z,1.79
2022-11-19T07:45:50.813Z,1.73
2022-11-19T07:48:38.806Z,1.79
2022-11-19T07:51:28.402Z,1.59
2022-11-19T07:54:16.571Z,1.59
2022-11-19T07:57:04.848Z,1.57
2022-11-19T07:59:53.078Z,1.51
2022-11-19T08:03:53.446Z,1.53
2022-11-19T08:07:11.846Z,1.50
2022-11-19T08:10:12.290Z,1.55
2022-11-19T08:17:39.623Z,1.65
2022-11-19T08:20:27.620Z,1.73
2022-11-19T08:23:20.340Z,1.67
2022-11-19T08:26:08.830Z,1.71
2022-11-19T08:28:57.042Z,1.67
2022-11-19T08:31:46.962Z,1.63
2022-11-19T08:34:35.246Z,1.64
2022-11-19T08:37:23.197Z,1.67
2022-11-19T08:40:13.786Z,1.65
2022-11-19T08:43:09.011Z,1.70
2022-11-19T08:45:57.142Z,1.63
2022-11-19T08:48:45.398Z,1.72
2022-11-19T08:51:43.391Z,1.73
2022-11-19T08:54:33.130Z,1.76
2022-11-19T08:57:22.270Z,1.83
2022-11-19T09:07:49.837Z,1.83
2022-11-19T09:10:48.887Z,1.69
2022-11-19T09:13:38.278Z,1.49
2022-11-19T09:16:26.522Z,1.47
2022-11-19T09:19:14.522Z,1.59
2022-11-19T09:22:02.607Z,1.64
2022-11-19T09:24:50.900Z,1.60
2022-11-19T09:27:39.299Z,1.66
2022-11-19T09:30:28.497Z,1.66
2022-11-19T09:33:16.470Z,1.71
2022-11-19T09:36:05.065Z,1.79
2022-11-19T09:38:57.416Z,1.82
2022-11-19T09:41:51.284Z,1.87
2022-11-19T09:44:52.623Z,1.81
2022-11-19T09:47:55.421Z,1.94
2022-11-19T09:50:53.524Z,1.91
2022-11-19T09:53:47.573Z,1.83
2022-11-19T09:56:38.525Z,1.90
2022-11-19T09:59:29.433Z,1.86
2022-11-19T10:02:19.572Z,1.98
2022-11-19T10:05:14.707Z,1.95
2022-11-19T10:08:18.300Z,2.01
2022-11-19T10:11:22.531Z,2.06
2022-11-19T10:14:22.411Z,2.18
2022-11-19T10:17:20.510Z,2.25
2022-11-19T10:20:22.769Z,2.32
2022-11-19T10:23:17.740Z,2.25
2022-11-19T10:26:11.511Z,2.32
2022-11-19T10:29:00.797Z,2.28
2022-11-19T10:31:52.978Z,2.39
2022-11-19T10:34:43.654Z,2.22
2022-11-19T10:37:40.386Z,2.28
2022-11-19T10:40:34.770Z,2.35
2022-11-19T10:43:29.917Z,2.43
2022-11-19T10:46:29.579Z,2.38
2022-11-19T10:49:18.494Z,2.43
2022-11-19T10:52:10.741Z,2.38
2022-11-19T10:55:14.986Z,2.31
2022-11-19T10:58:12.937Z,2.37
2022-11-19T11:01:06.052Z,2.31
2022-11-19T11:04:21.425Z,2.37
2022-11-19T11:07:12.553Z,2.01
2022-11-19T11:10:02.462Z,2.10
2022-11-19T11:13:12.730Z,2.21
2022-11-19T11:16:10.116Z,2.27
2022-11-19T11:19:01.171Z,2.27
2022-11-19T11:21:54.994Z,2.33
2022-11-19T11:24:43.319Z,2.27
2022-11-19T11:27:35.634Z,2.33
2022-11-19T11:30:23.683Z,2.24
2022-11-19T11:33:28.489Z,2.22
2022-11-19T11:36:21.797Z,1.99
2022-11-19T11:39:27.187Z,2.01
2022-11-19T11:42:20.657Z,2.23
2022-11-19T11:45:32.725Z,2.37
2022-11-19T11:48:23.280Z,2.44
2022-11-19T11:51:29.404Z,2.46
2022-11-19T11:54:23.189Z,2.48
2022-11-19T11:57:18.833Z,2.50
2022-11-19T12:00:32.886Z,2.41
2022-11-19T12:03:21.231Z,2.43
2022-11-19T12:06:16.399Z,2.41
2022-11-19T12:09:10.863Z,2.44
2022-11-19T12:12:05.116Z,2.38
2022-11-19T12:14:59.003Z,2.38
2022-11-19T12:17:58.828Z,2.30
2022-11-19T12:20:55.108Z,2.34
2022-11-19T12:23:59.720Z,2.36
2022-11-19T12:27:08.767Z,2.38
2022-11-19T12:30:05.607Z,2.39
2022-11-19T12:33:17.245Z,2.31
2022-11-19T12:36:14.667Z,2.36
2022-11-19T12:39:10.456Z,2.35
2022-11-19T12:42:22.146Z,2.32
2022-11-19T12:45:18.809Z,2.33
2022-11-19T12:48:35.272Z,2.27
2022-11-19T12:51:37.971Z,2.24
2022-11-19T12:54:47.373Z,2.23
2022-11-19T12:57:48.399Z,2.19
2022-11-19T13:00:42.337Z,2.20
2022-11-19T13:03:47.751Z,2.22
2022-11-19T13:07:26.472Z,2.24
2022-11-19T13:10:19.611Z,2.25
2022-11-19T13:13:15.119Z,2.21
2022-11-19T13:16:13.828Z,2.22
2022-11-19T13:27:08.880Z,2.20
2022-11-19T13:30:03.480Z,2.19
2022-11-19T13:33:02.512Z,2.19
2022-11-19T13:35:58.957Z,2.22
2022-11-19T13:38:53.651Z,2.22
2022-11-19T13:42:01.419Z,2.22
2022-11-19T13:44:50.597Z,2.23
2022-11-19T13:47:45.673Z,2.19
2022-11-19T13:50:40.368Z,2.13
2022-11-19T13:53:34.949Z,2.14
2022-11-19T13:56:23.810Z,2.16
2022-11-19T13:59:31.509Z,2.17
2022-11-19T14:02:52.753Z,2.21
2022-11-19T14:06:12.235Z,2.17
2022-11-19T14:09:21.442Z,2.18
2022-11-19T14:12:40.466Z,2.18
2022-11-19T14:16:09.467Z,2.18
2022-11-19T14:19:20.759Z,2.21
2022-11-19T14:22:58.739Z,2.18
2022-11-19T14:26:06.065Z,2.19
2022-11-19T14:28:54.338Z,2.20
2022-11-19T14:32:11.852Z,2.20
2022-11-19T14:35:28.924Z,2.21
2022-11-19T14:38:39.459Z,2.15
2022-11-19T14:41:36.192Z,2.12
2022-11-19T14:44:35.913Z,2.16
2022-11-19T14:47:38.330Z,2.15
2022-11-19T14:50:31.632Z,2.18
2022-11-19T15:15:04.408Z,2.05
2022-11-19T15:18:03.665Z,2.04
2022-11-19T15:21:22.719Z,2.01
2022-11-19T15:24:22.665Z,1.94
2022-11-19T15:27:21.081Z,1.86
2022-11-19T15:30:18.951Z,1.84
2022-11-19T15:33:40.032Z,1.88
2022-11-19T15:36:38.526Z,1.91
2022-11-19T15:39:31.749Z,1.80
2022-11-19T15:42:23.609Z,1.81
2022-11-19T15:45:18.197Z,1.62
2022-11-19T15:48:15.293Z,1.58
2022-11-19T15:51:03.672Z,1.56
2022-11-19T15:54:03.405Z,1.59
2022-11-19T15:56:52.370Z,1.63
2022-11-19T15:59:40.489Z,1.66
2022-11-19T16:02:37.569Z,1.68
2022-11-19T16:05:27.605Z,1.71
2022-11-19T16:08:17.125Z,1.73
2022-11-19T16:11:23.461Z,1.74
2022-11-19T16:14:38.696Z,1.72
2022-11-19T16:17:41.809Z,1.70
2022-11-19T16:20:35.371Z,1.73
2022-11-19T16:23:25.880Z,1.71
2022-11-19T16:26:13.841Z,1.73
2022-11-19T16:29:03.411Z,1.73
2022-11-19T16:31:53.157Z,1.74
2022-11-19T16:34:41.117Z,1.74
2022-11-19T16:37:30.387Z,1.73
2022-11-19T16:40:19.541Z,1.73
2022-11-19T16:43:06.633Z,1.73
2022-11-19T16:45:54.722Z,1.69
2022-11-19T16:49:00.876Z,1.68
2022-11-19T16:51:54.244Z,1.62
2022-11-19T16:54:48.810Z,1.62
2022-11-19T16:57:36.727Z,1.62
2022-11-19T17:00:28.369Z,1.59
2022-11-19T17:03:32.172Z,1.65
2022-11-19T17:06:25.566Z,1.66
2022-11-19T17:09:31.387Z,1.63
2022-11-19T17:12:29.820Z,1.63
2022-11-19T17:15:39.578Z,1.60
2022-11-19T17:18:30.607Z,1.59
2022-11-19T17:21:27.406Z,1.59
2022-11-19T17:24:21.507Z,1.58
2022-11-19T17:27:23.732Z,1.58
2022-11-19T17:30:23.016Z,1.61
2022-11-19T17:33:18.204Z,1.60
2022-11-19T17:36:13.589Z,1.60
2022-11-19T17:39:01.512Z,1.60
2022-11-19T17:42:09.835Z,1.59
2022-11-19T17:44:57.569Z,1.59
2022-11-19T17:47:47.924Z,1.58
2022-11-19T17:50:35.812Z,1.59
2022-11-19T17:53:24.776Z,1.61
2022-11-19T17:56:20.187Z,1.61
2022-11-19T17:59:08.172Z,1.60
2022-11-19T18:01:58.362Z,1.62
2022-11-19T18:04:49.318Z,1.59
2022-11-19T18:07:37.403Z,1.58
2022-11-19T18:10:25.449Z,1.55
2022-11-19T18:13:15.917Z,1.54
2022-11-19T18:16:10.259Z,1.52
2022-11-19T18:18:58.464Z,1.53
2022-11-19T18:21:47.991Z,1.51
2022-11-19T18:24:35.888Z,1.48
2022-11-19T18:27:23.960Z,1.47
2022-11-19T18:30:12.976Z,1.47
2022-11-19T18:33:04.025Z,1.49
2022-11-19T18:35:54.402Z,1.46
2022-11-19T18:38:43.850Z,1.42
2022-11-19T18:41:32.737Z,1.43
2022-11-19T18:44:43.389Z,1.43
2022-11-19T18:47:31.873Z,1.44
2022-11-19T18:50:28.240Z,1.35
2022-11-19T18:53:17.974Z,1.37
2022-11-19T18:56:07.515Z,1.36
2022-11-19T18:58:58.036Z,1.37
2022-11-19T19:01:48.202Z,1.35
2022-11-19T19:04:39.227Z,1.36
2022-11-19T19:07:27.231Z,1.38
2022-11-19T19:10:15.318Z,1.37
2022-11-19T19:13:04.575Z,1.09
2022-11-19T19:15:52.701Z,1.11
2022-11-19T19:18:40.844Z,1.16
2022-11-19T19:21:29.189Z,1.24
2022-11-19T19:24:16.979Z,1.30
2022-11-19T19:27:05.399Z,1.29
2022-11-19T19:29:54.615Z,1.25
2022-11-19T19:32:42.299Z,1.31
2022-11-19T19:35:30.307Z,1.26
2022-11-19T19:38:20.820Z,1.27
2022-11-19T19:41:11.834Z,1.28
2022-11-19T19:44:05.664Z,1.29
2022-11-19T19:46:55.179Z,1.33
2022-11-19T19:49:43.555Z,1.33
2022-11-19T19:52:31.491Z,1.31
2022-11-19T19:55:19.837Z,1.27
2022-11-19T19:58:08.355Z,1.30
2022-11-19T20:00:56.113Z,1.30
2022-11-19T20:03:50.313Z,1.24
2022-11-19T20:06:45.552Z,1.18
2022-11-19T20:09:33.867Z,1.22
2022-11-19T20:12:21.914Z,1.27
2022-11-19T20:15:11.025Z,1.29
2022-11-19T20:17:58.982Z,1.25
2022-11-19T20:20:48.382Z,1.27
2022-11-19T20:23:36.817Z,1.29
2022-11-19T20:26:30.510Z,1.31
2022-11-19T20:29:20.526Z,1.33
2022-11-19T20:32:08.689Z,1.33
2022-11-19T20:34:56.847Z,1.27
2022-11-19T20:37:46.248Z,1.29
2022-11-19T20:40:34.675Z,1.27
2022-11-19T20:43:45.862Z,1.30
2022-11-19T20:46:37.491Z,1.33
2022-11-19T20:49:27.457Z,1.33
2022-11-19T20:52:17.137Z,1.32
2022-11-19T20:55:07.961Z,1.36
2022-11-19T20:57:57.666Z,1.34
2022-11-19T21:00:45.750Z,1.35
2022-11-19T21:03:35.012Z,1.34
2022-11-19T21:06:31.449Z,1.34
2022-11-19T21:09:20.611Z,1.35
2022-11-19T21:12:13.507Z,1.31
2022-11-19T21:15:02.044Z,1.33
2022-11-19T21:17:49.984Z,1.35
2022-11-19T21:20:38.458Z,1.34
2022-11-19T21:23:28.963Z,1.21
2022-11-19T21:26:19.808Z,1.28
2022-11-19T21:29:13.917Z,1.31
2022-11-19T21:32:01.688Z,1.32
2022-11-19T21:34:50.558Z,1.32
2022-11-19T21:37:38.944Z,1.36
2022-11-19T21:40:27.319Z,1.36
2022-11-19T21:43:15.169Z,1.37
2022-11-19T21:46:08.867Z,1.37
2022-11-19T21:49:04.640Z,1.38
2022-11-19T21:51:53.476Z,1.38
2022-11-19T21:54:41.179Z,1.38
2022-11-19T21:57:30.298Z,1.35
2022-11-19T22:00:21.970Z,1.33
2022-11-19T22:03:11.840Z,1.32
2022-11-19T22:06:01.814Z,1.32
2022-11-19T22:08:53.074Z,1.30
2022-11-19T22:11:41.714Z,1.34
2022-11-19T22:14:41.939Z,1.35
2022-11-19T22:17:32.782Z,1.35
2022-11-19T22:20:24.069Z,1.37
2022-11-19T22:23:12.003Z,1.38
2022-11-19T22:26:08.808Z,1.36
2022-11-19T22:28:59.888Z,1.36
2022-11-19T22:31:47.910Z,1.36
2022-11-19T22:34:37.161Z,1.36
2022-11-19T22:37:26.990Z,1.36
2022-11-19T22:43:26.234Z,1.37
2022-11-19T22:46:15.303Z,1.36
2022-11-19T22:49:04.121Z,1.36
2022-11-19T22:51:52.139Z,1.34
2022-11-19T22:54:44.577Z,1.33
2022-11-19T22:57:35.581Z,1.31
2022-11-19T23:00:41.393Z,1.30
2022-11-19T23:03:29.961Z,1.28
2022-11-19T23:06:18.816Z,1.29
2022-11-19T23:09:10.645Z,1.29
2022-11-19T23:12:17.504Z,1.27
2022-11-19T23:15:12.000Z,1.20
2022-11-19T23:18:00.792Z,1.24
2022-11-19T23:20:48.712Z,1.24
2022-11-19T23:23:37.969Z,1.24
2022-11-19T23:26:28.579Z,1.23
2022-11-19T23:29:18.384Z,1.21
2022-11-19T23:32:06.550Z,1.21
2022-11-19T23:34:55.000Z,1.22
2022-11-19T23:37:42.884Z,1.23
2022-11-19T23:40:30.712Z,1.23
2022-11-19T23:43:18.603Z,1.26
2022-11-19T23:46:09.676Z,1.25
2022-11-19T23:48:59.257Z,1.23
2022-11-19T23:51:47.312Z,1.25
2022-11-19T23:54:35.302Z,1.24
2022-11-19T23:57:23.394Z,1.23
